Time;durP1;ratioP1;P1;durP2;ratioP2;P2;SDS_P1;SDS_P2;PMS_P1;PMS_P2;Temp;Humidity;BMP_temperature;BMP_pressure;BME280_temperature;BME280_humidity;BME280_pressure;Samples;Min_cycle;Max_cycle;Signal;HPM_P1;HPM_P2
2021/06/19 00:08:53;;;;;;;6.13;5.30;;;;;;;20.47;54.89;99687.91;531815;1088;117215;-63
2021/06/19 00:19:01;;;;;;;5.07;4.63;;;;;;;20.32;55.40;99685.03;532622;1089;116345;-63
2021/06/19 00:29:08;;;;;;;6.58;5.18;;;;;;;20.18;55.86;99689.94;531469;1087;115930;-63
2021/06/19 00:39:14;;;;;;;7.30;5.00;;;;;;;20.07;55.68;99691.06;531872;1088;116788;-63
2021/06/19 00:49:22;;;;;;;5.45;4.95;;;;;;;19.95;56.64;99687.00;529851;1087;115864;-63
2021/06/19 00:59:29;;;;;;;6.17;5.10;;;;;;;19.86;56.66;99684.23;530985;1087;116560;-63
2021/06/19 01:09:36;;;;;;;6.37;5.77;;;;;;;19.78;56.87;99678.03;532479;1088;116619;-64
2021/06/19 01:19:43;;;;;;;6.00;4.53;;;;;;;19.69;56.88;99679.81;519368;1088;116246;-62
2021/06/19 01:29:49;;;;;;;5.57;4.73;;;;;;;19.56;57.60;99675.70;525388;1087;116726;-63
2021/06/19 01:40:05;;;;;;;7.40;5.77;;;;;;;19.47;57.82;99681.97;527761;1089;116780;-64
2021/06/19 01:50:16;;;;;;;5.73;5.20;;;;;;;19.37;57.94;99682.04;528026;1089;117466;-63
2021/06/19 02:00:25;;;;;;;6.43;5.90;;;;;;;19.27;58.40;99684.80;525474;1089;116246;-62
2021/06/19 02:10:34;;;;;;;7.77;6.57;;;;;;;19.16;58.41;99682.36;532590;1088;117377;-62
2021/06/19 02:20:41;;;;;;;7.50;5.87;;;;;;;19.03;58.89;99683.58;528839;1088;116513;-62
2021/06/19 02:30:51;;;;;;;6.37;5.83;;;;;;;18.97;59.00;99684.13;532155;1087;116360;-62
2021/06/19 02:40:58;;;;;;;7.27;6.47;;;;;;;19.03;59.20;99696.03;532617;1088;116473;-62
2021/06/19 02:51:05;;;;;;;8.10;6.30;;;;;;;19.56;59.11;99697.00;531926;1087;116348;-62
2021/06/19 03:01:11;;;;;;;6.30;5.70;;;;;;;22.38;56.25;99696.83;532636;1087;115983;-63
2021/06/19 03:11:18;;;;;;;7.00;6.30;;;;;;;24.12;52.53;99700.19;525163;1089;116313;-62
2021/06/19 03:21:25;;;;;;;5.70;5.20;;;;;;;24.74;50.57;99701.61;523091;1087;116434;-62
2021/06/19 03:31:33;;;;;;;5.80;5.30;;;;;;;26.19;46.15;99704.36;526998;1087;116001;-63
2021/06/19 03:41:40;;;;;;;5.40;4.90;;;;;;;24.13;47.70;99701.84;531823;1087;115898;-63
2021/06/19 03:51:48;;;;;;;7.07;6.40;;;;;;;24.72;49.51;99710.86;522863;1087;116127;-61
2021/06/19 04:01:54;;;;;;;6.80;5.70;;;;;;;31.10;41.88;99709.59;529581;1087;116260;-63
2021/06/19 04:12:01;;;;;;;7.80;6.40;;;;;;;35.58;35.52;99700.45;523009;1087;116456;-62
2021/06/19 04:22:09;;;;;;;5.83;5.33;;;;;;;37.78;31.24;99685.97;532615;1087;116291;-63
2021/06/19 04:32:17;;;;;;;6.70;4.87;;;;;;;40.02;27.78;99688.02;524807;1087;116346;-63
2021/06/19 04:42:26;;;;;;;4.25;3.73;;;;;;;42.28;24.37;99672.70;531812;1090;116678;-63
2021/06/19 04:52:40;;;;;;;5.30;4.17;;;;;;;44.32;22.76;99673.54;532562;1089;115925;-63
2021/06/19 05:02:47;;;;;;;4.20;3.70;;;;;;;45.98;20.11;99669.91;531781;1089;116643;-63
2021/06/19 05:12:53;;;;;;;4.23;3.80;;;;;;;47.69;18.18;99679.60;532527;1089;116100;-63
2021/06/19 05:23:08;;;;;;;3.68;3.38;;;;;;;49.56;16.86;99676.11;523564;1087;116143;-62
2021/06/19 05:33:14;;;;;;;4.38;4.03;;;;;;;51.19;15.18;99671.06;531840;1089;116705;-65
2021/06/19 05:43:21;;;;;;;5.50;3.48;;;;;;;52.20;13.64;99683.02;532588;1090;116058;-65
2021/06/19 05:53:28;;;;;;;3.60;3.33;;;;;;;52.94;13.51;99677.04;532566;1088;115979;-61
2021/06/19 06:03:34;;;;;;;7.20;4.33;;;;;;;54.16;12.32;99681.95;531780;1087;116027;-61
2021/06/19 06:13:41;;;;;;;4.43;4.03;;;;;;;55.74;11.63;99690.18;532574;1087;116404;-61
2021/06/19 06:23:47;;;;;;;6.05;5.55;;;;;;;57.21;10.54;99678.52;531888;1087;116410;-62
2021/06/19 06:33:54;;;;;;;7.23;6.73;;;;;;;58.75;9.80;99672.64;532540;1087;116202;-61
2021/06/19 06:44:01;;;;;;;11.05;10.28;;;;;;;58.53;8.79;99691.95;532653;1090;115732;-61
2021/06/19 06:54:09;;;;;;;11.95;11.40;;;;;;;58.67;8.58;99694.59;531839;1088;116492;-61
2021/06/19 07:04:16;;;;;;;13.45;12.60;;;;;;;58.48;8.24;99699.70;532546;1090;116075;-61
2021/06/19 07:14:22;;;;;;;16.58;15.78;;;;;;;58.93;8.28;99680.85;532544;1089;116739;-61
2021/06/19 07:24:29;;;;;;;19.60;18.75;;;;;;;59.30;8.23;99678.22;531852;1087;116937;-61
2021/06/19 07:34:35;;;;;;;20.65;19.73;;;;;;;59.50;7.34;99669.77;532656;1087;116510;-61
2021/06/19 07:44:42;;;;;;;7.23;6.83;;;;;;;56.45;8.95;99653.70;531798;1087;116710;-61
2021/06/19 07:54:49;;;;;;;3.95;2.75;;;;;;;47.10;11.66;99628.77;532347;1088;115668;-60
2021/06/19 08:04:55;;;;;;;7.17;2.70;;;;;;;39.80;17.41;99646.17;532617;1089;116213;-61
2021/06/19 08:15:02;;;;;;;5.35;2.50;;;;;;;36.15;20.42;99640.69;531883;1087;116253;-60
2021/06/19 08:25:10;;;;;;;2.60;2.40;;;;;;;34.93;22.82;99638.52;532558;1085;116643;-61
2021/06/19 08:35:18;;;;;;;3.57;2.20;;;;;;;34.12;23.86;99635.48;532593;1086;116263;-61
2021/06/19 08:45:26;;;;;;;4.35;2.40;;;;;;;33.31;25.09;99624.00;531842;1088;116232;-61
2021/06/19 08:55:32;;;;;;;2.85;2.20;;;;;;;33.22;25.77;99611.89;526088;1088;115919;-61
2021/06/19 09:05:39;;;;;;;4.30;2.10;;;;;;;32.74;26.58;99614.09;523346;1089;115652;-60
2021/06/19 09:16:01;;;;;;;5.50;2.10;;;;;;;32.20;27.93;99615.23;515086;1090;116016;-61
2021/06/19 09:26:13;;;;;;;2.50;2.37;;;;;;;31.70;28.44;99612.02;532610;1089;115934;-61
2021/06/19 09:36:37;;;;;;;2.03;1.80;;;;;;;31.65;28.98;99595.61;531865;1088;116323;-62
2021/06/19 09:46:57;;;;;;;3.33;2.00;;;;;;;31.72;29.33;99601.75;532648;1088;116303;-61
2021/06/19 09:57:04;;;;;;;5.25;3.30;;;;;;;31.30;30.15;99589.97;531884;1087;116067;-62
2021/06/19 10:07:11;;;;;;;3.03;2.00;;;;;;;31.47;30.10;99581.14;525762;1089;116206;-60
2021/06/19 10:17:20;;;;;;;2.50;2.33;;;;;;;31.13;30.64;99578.16;527568;1088;115625;-60
2021/06/19 10:27:29;;;;;;;3.50;2.00;;;;;;;31.03;30.88;99566.02;515560;1087;116371;-60
2021/06/19 10:37:36;;;;;;;3.78;2.30;;;;;;;30.62;31.30;99557.67;527902;1088;115997;-60
2021/06/19 10:47:59;;;;;;;6.20;2.93;;;;;;;31.01;31.12;99551.88;522549;1088;118295;-60
2021/06/19 10:58:19;;;;;;;2.97;2.60;;;;;;;31.09;31.57;99541.72;524166;1088;116051;-61
2021/06/19 11:08:27;;;;;;;4.67;2.50;;;;;;;31.11;30.74;99518.74;525298;1085;115778;-60
2021/06/19 11:18:55;;;;;;;3.33;3.07;;;;;;;30.94;31.36;99521.33;528468;1087;116482;-62
2021/06/19 11:29:41;;;;;;;2.67;2.40;;;;;;;30.84;32.39;99496.70;524659;1087;115923;-61
2021/06/19 11:39:47;;;;;;;2.70;2.50;;;;;;;31.06;31.62;99496.95;530418;1087;116548;-61
2021/06/19 11:49:52;;;;;;;;;;;;;;;31.17;31.21;99487.14;515202;1088;116570;-61
2021/06/19 12:00:15;;;;;;;2.83;2.00;;;;;;;31.21;31.04;99471.23;515359;1087;102302;-59
2021/06/19 12:10:31;;;;;;;3.90;1.73;;;;;;;31.36;30.45;99468.06;532509;1085;116009;-61
2021/06/19 12:20:37;;;;;;;2.50;1.70;;;;;;;31.51;29.94;99462.09;531882;1087;116523;-61
2021/06/19 12:30:56;;;;;;;4.03;2.15;;;;;;;31.51;30.26;99453.96;530963;1089;116043;-61
2021/06/19 12:41:04;;;;;;;4.07;2.60;;;;;;;31.35;30.84;99437.38;532628;1087;116264;-61
2021/06/19 12:51:24;;;;;;;4.03;2.40;;;;;;;31.28;30.41;99436.68;528292;1087;117689;-61
2021/06/19 13:01:31;;;;;;;5.33;2.67;;;;;;;31.37;30.29;99439.87;532578;1087;116467;-61
2021/06/19 13:11:39;;;;;;;3.87;3.00;;;;;;;31.42;30.76;99431.82;531867;1087;116365;-61
2021/06/19 13:21:48;;;;;;;5.33;2.10;;;;;;;31.79;29.53;99430.63;532638;1085;116854;-62
2021/06/19 13:32:01;;;;;;;2.50;1.80;;;;;;;32.22;28.94;99442.83;532657;1087;116459;-62
2021/06/19 13:42:11;;;;;;;1.73;1.63;;;;;;;32.24;29.34;99423.55;531913;1089;116944;-62
2021/06/19 13:52:18;;;;;;;4.60;1.90;;;;;;;32.42;28.79;99425.23;525309;1088;116556;-61
2021/06/19 14:02:25;;;;;;;2.90;2.00;;;;;;;32.14;28.92;99400.59;527613;1089;115979;-60
2021/06/19 14:12:32;;;;;;;3.10;2.20;;;;;;;31.80;29.08;99395.15;514149;1089;116879;-60
2021/06/19 14:22:39;;;;;;;2.60;2.40;;;;;;;31.75;29.39;99384.16;520214;1087;116622;-60
2021/06/19 14:32:46;;;;;;;4.05;2.28;;;;;;;31.51;29.59;99383.42;525608;1086;116500;-59
2021/06/19 14:42:53;;;;;;;2.90;2.70;;;;;;;31.45;30.31;99371.66;515355;1087;115655;-60
2021/06/19 14:52:59;;;;;;;6.47;2.47;;;;;;;31.08;30.62;99369.28;520572;1087;116133;-62
2021/06/19 15:03:07;;;;;;;7.33;5.93;;;;;;;30.84;30.99;99367.45;527610;1087;116678;-61
2021/06/19 15:13:14;;;;;;;3.33;2.67;;;;;;;30.48;31.27;99374.76;518575;1089;116529;-61
2021/06/19 15:23:20;;;;;;;3.53;3.13;;;;;;;30.23;32.30;99364.94;519102;1087;116192;-61
2021/06/19 15:33:28;;;;;;;6.48;3.30;;;;;;;30.19;32.50;99361.07;527167;1088;115945;-61
2021/06/19 15:43:35;;;;;;;3.35;2.85;;;;;;;30.15;32.97;99360.70;523678;1088;115714;-62
2021/06/19 15:53:41;;;;;;;3.70;3.50;;;;;;;30.11;33.59;99356.83;519854;1088;115921;-60
2021/06/19 16:03:48;;;;;;;4.30;3.40;;;;;;;30.03;33.91;99351.72;532612;1089;116152;-61
2021/06/19 16:13:54;;;;;;;5.53;3.38;;;;;;;30.22;33.02;99347.05;532533;1090;117470;-61
2021/06/19 16:24:01;;;;;;;6.08;3.40;;;;;;;30.29;33.27;99336.11;519203;1089;116380;-60
2021/06/19 16:34:08;;;;;;;8.48;3.33;;;;;;;30.30;32.96;99333.17;529179;1087;115983;-61
2021/06/19 16:44:14;;;;;;;;;;;;;;;30.36;32.78;99328.70;532659;1088;116691;-60
2021/06/19 16:54:23;;;;;;;4.68;4.00;;;;;;;30.33;32.86;99332.70;532245;1089;102343;-60
2021/06/19 17:04:29;;;;;;;4.57;4.20;;;;;;;30.14;33.58;99342.81;532607;1089;116746;-61
2021/06/19 17:14:36;;;;;;;6.93;3.53;;;;;;;29.90;34.45;99344.65;524991;1089;117361;-61
2021/06/19 17:24:42;;;;;;;4.70;4.20;;;;;;;29.69;35.15;99351.40;521814;1089;179374;-62
2021/06/19 17:34:49;;;;;;;4.68;4.28;;;;;;;29.54;35.59;99366.17;524816;1087;116361;-60
2021/06/19 17:44:56;;;;;;;4.75;4.35;;;;;;;29.23;36.35;99355.31;525399;1088;116203;-61
2021/06/19 17:55:03;;;;;;;5.35;3.98;;;;;;;29.54;36.51;99349.11;526034;1089;116520;-60
2021/06/19 18:05:11;;;;;;;4.95;4.00;;;;;;;29.03;37.02;99366.38;528132;1087;116264;-60
2021/06/19 18:15:18;;;;;;;5.53;3.70;;;;;;;28.51;37.63;99369.36;530693;1088;116274;-60
2021/06/19 18:25:26;;;;;;;6.40;4.00;;;;;;;28.14;38.33;99380.87;522815;1087;117161;-60
2021/06/19 18:35:32;;;;;;;7.50;5.60;;;;;;;27.77;39.04;99386.11;530880;1087;116486;-66
2021/06/19 18:45:39;;;;;;;5.43;4.70;;;;;;;27.38;40.30;99373.40;532588;1087;116817;-61
2021/06/19 18:55:46;;;;;;;7.83;5.15;;;;;;;27.07;41.13;99374.99;532567;1086;116294;-61
2021/06/19 19:05:53;;;;;;;6.23;4.48;;;;;;;26.78;42.23;99393.25;529370;1087;116014;-61
2021/06/19 19:15:59;;;;;;;5.67;5.17;;;;;;;26.49;43.00;99400.75;532581;1089;116407;-61
2021/06/19 19:26:06;;;;;;;10.80;6.70;;;;;;;26.24;43.83;99403.23;520217;1088;116859;-60
2021/06/19 19:36:13;;;;;;;7.90;5.27;;;;;;;26.00;44.54;99414.33;520480;1088;116664;-60
2021/06/19 19:46:19;;;;;;;8.70;6.07;;;;;;;25.80;45.67;99422.36;532618;1087;115857;-61
2021/06/19 19:56:26;;;;;;;6.87;4.97;;;;;;;25.64;46.22;99414.67;521441;1089;116859;-62
2021/06/19 20:06:33;;;;;;;6.27;5.20;;;;;;;25.43;46.99;99409.16;531806;1087;116386;-61
2021/06/19 20:16:40;;;;;;;6.33;4.50;;;;;;;25.28;47.30;99412.02;530241;1088;116704;-60
2021/06/19 20:26:46;;;;;;;5.88;5.28;;;;;;;25.14;47.32;99421.02;531832;1089;117122;-61
2021/06/19 20:36:53;;;;;;;7.17;4.57;;;;;;;24.98;47.58;99430.22;527080;1090;116408;-61
2021/06/19 20:47:02;;;;;;;5.33;4.93;;;;;;;24.85;48.12;99433.66;524382;1088;116033;-62
2021/06/19 20:57:09;;;;;;;5.10;4.70;;;;;;;24.67;48.23;99426.07;522546;1088;115982;-61
2021/06/19 21:07:17;;;;;;;4.83;4.28;;;;;;;24.50;48.42;99431.70;523264;1089;116251;-61
2021/06/19 21:17:24;;;;;;;7.18;5.60;;;;;;;24.31;49.05;99436.72;528017;1087;116438;-61
2021/06/19 21:27:30;;;;;;;5.40;4.90;;;;;;;24.08;49.78;99436.89;531933;1089;164859;-61
2021/06/19 21:37:38;;;;;;;6.37;5.83;;;;;;;23.86;50.48;99444.06;532617;1088;116890;-62
2021/06/19 21:47:44;;;;;;;6.98;4.75;;;;;;;23.62;51.08;99440.70;531847;1087;116063;-61
2021/06/19 21:57:51;;;;;;;6.65;4.55;;;;;;;23.43;51.60;99439.41;532587;1087;116068;-61
2021/06/19 22:07:58;;;;;;;7.07;6.37;;;;;;;23.24;52.28;99433.59;532662;1090;116275;-61
2021/06/19 22:18:06;;;;;;;7.37;6.30;;;;;;;23.04;52.87;99441.34;517876;1089;116488;-61
2021/06/19 22:28:17;;;;;;;6.33;5.83;;;;;;;22.83;53.56;99431.34;532617;1088;116447;-61
2021/06/19 22:38:23;;;;;;;6.97;6.07;;;;;;;22.63;54.18;99435.37;532585;1087;116225;-61
2021/06/19 22:48:30;;;;;;;8.40;5.83;;;;;;;22.41;54.82;99439.72;531874;1087;115799;-61
2021/06/19 22:58:37;;;;;;;6.87;6.13;;;;;;;22.26;55.49;99436.98;532524;1086;117011;-61
2021/06/19 23:08:49;;;;;;;8.17;6.00;;;;;;;22.09;56.40;99437.09;526586;1087;117281;-61
2021/06/19 23:18:56;;;;;;;7.05;5.68;;;;;;;21.92;56.69;99448.91;529226;1088;116891;-61
2021/06/19 23:29:03;;;;;;;7.13;6.40;;;;;;;21.76;57.19;99448.00;519172;1087;116155;-61
2021/06/19 23:39:10;;;;;;;6.47;5.87;;;;;;;21.59;57.94;99433.86;521046;1087;116296;-61
2021/06/19 23:49:17;;;;;;;7.00;6.30;;;;;;;21.49;58.31;99434.05;529849;1087;116050;-62
2021/06/19 23:59:24;;;;;;;6.37;5.87;;;;;;;21.37;58.49;99436.28;517946;1087;116440;-60
